M I D A S
Marine Information and Data Acquisition System
Tripno 2287 of the Zeeleeuw from 2012-04-11 06:49:18 to 2012-04-11 14:26:17
Back to CruiseResearch ActivitiesStationsMapUnderway DataData graphs

EquipmentUnitsComment
TimeDGPSUTC
LatitudeDGPSDM.mWGS84
LongitudeDGPSDM.mWGS84
HeadingGyrodeg 
SOGDGPSknotsSpeed over ground
COGDGPSdegCourse over ground
DepthEcho soundermeters200 kHz
Missing or incorrect values are displayed as -999
Navigation data collected by the RV Zeeleeuw from 2012-04-11 06:29:50 to 2012-04-11 14:31:55
                                                                                    Next 1000 lines
Time Latitude Longitude Heading SOG COG Depth
2012-04-11 06:30:00 51°13.631 2°56.022 125.8 0.3 154 -999
2012-04-11 06:30:05 51°13.633 2°56.021 125.8 0.2 304 -999
2012-04-11 06:30:11 51°13.634 2°56.02 125.8 0.3 305 -999
2012-04-11 06:30:16 51°13.634 2°56.02 125.8 0.1 300 -999
2012-04-11 06:30:20 51°13.634 2°56.021 125.8 -999 127 -999
2012-04-11 06:30:25 51°13.634 2°56.021 125.8 -999 3 -999
2012-04-11 06:30:30 51°13.635 2°56.02 125.8 0.1 299 -999
2012-04-11 06:30:35 51°13.635 2°56.02 125.8 0.1 124 -999
2012-04-11 06:30:40 51°13.635 2°56.02 125.8 0.1 139 -999
2012-04-11 06:30:45 51°13.635 2°56.02 125.8 -999 305 -999
2012-04-11 06:30:51 51°13.636 2°56.019 125.8 0.1 295 -999
2012-04-11 06:30:56 51°13.636 2°56.019 125.8 0.1 302 -999
2012-04-11 06:31:00 51°13.636 2°56.019 125.8 -999 2 -999
2012-04-11 06:31:05 51°13.635 2°56.019 125.8 0.1 137 -999
2012-04-11 06:31:11 51°13.635 2°56.019 125.7 0.1 104 -999
2012-04-11 06:31:16 51°13.636 2°56.019 125.7 -999 72 -999
2012-04-11 06:31:20 51°13.636 2°56.019 125.7 0.1 294 -999
2012-04-11 06:31:25 51°13.636 2°56.019 125.7 0.1 291 -999
2012-04-11 06:31:30 51°13.636 2°56.019 125.7 -999 260 -999
2012-04-11 06:31:35 51°13.636 2°56.019 125.7 0.2 304 -999
2012-04-11 06:31:40 51°13.636 2°56.019 125.7 0.2 318 -999
2012-04-11 06:31:46 51°13.636 2°56.019 125.7 0.1 97 -999
2012-04-11 06:31:50 51°13.637 2°56.019 125.7 -999 65 -999
2012-04-11 06:31:56 51°13.637 2°56.019 125.7 0.2 304 -999
2012-04-11 06:32:01 51°13.637 2°56.019 125.7 -999 51 -999
2012-04-11 06:32:05 51°13.637 2°56.019 125.7 0.2 113 -999
2012-04-11 06:32:10 51°13.636 2°56.02 125.7 0.2 131 -999
2012-04-11 06:32:15 51°13.636 2°56.02 125.7 0.2 132 -999
2012-04-11 06:32:20 51°13.636 2°56.02 125.7 0.2 122 -999
2012-04-11 06:32:25 51°13.637 2°56.019 125.7 -999 322 -999
2012-04-11 06:32:30 51°13.637 2°56.019 125.7 0.1 74 -999
2012-04-11 06:32:35 51°13.637 2°56.019 125.7 0.1 97 -999
2012-04-11 06:32:41 51°13.637 2°56.018 125.7 0.1 321 -999
2012-04-11 06:32:46 51°13.637 2°56.019 125.7 0.1 136 -999
2012-04-11 06:32:51 51°13.637 2°56.019 125.7 0.3 123 -999
2012-04-11 06:32:55 51°13.637 2°56.019 125.7 0.3 118 -999
2012-04-11 06:33:00 51°13.637 2°56.019 125.7 -999 122 -999
2012-04-11 06:33:05 51°13.637 2°56.019 125.7 0.1 151 -999
2012-04-11 06:33:10 51°13.637 2°56.019 125.7 0.1 300 -999
2012-04-11 06:33:16 51°13.637 2°56.019 125.7 0.1 286 -999
2012-04-11 06:33:20 51°13.637 2°56.019 125.7 -999 148 -999
2012-04-11 06:33:26 51°13.636 2°56.02 125.7 0.3 111 -999
2012-04-11 06:33:31 51°13.636 2°56.019 125.7 -999 106 -999
2012-04-11 06:33:36 51°13.636 2°56.02 125.7 0.2 126 -999
2012-04-11 06:33:40 51°13.636 2°56.02 125.7 -999 134 -999
2012-04-11 06:33:45 51°13.636 2°56.019 125.7 0.2 307 -999
2012-04-11 06:33:50 51°13.636 2°56.019 125.7 0.1 308 -999
2012-04-11 06:33:55 51°13.636 2°56.02 125.7 -999 308 -999
2012-04-11 06:34:00 51°13.636 2°56.02 125.7 0.1 117 -999
2012-04-11 06:34:05 51°13.636 2°56.019 125.7 0.1 270 -999
2012-04-11 06:34:11 51°13.636 2°56.019 125.7 0.2 300 -999
2012-04-11 06:34:16 51°13.636 2°56.019 125.7 0.1 322 -999
2012-04-11 06:34:21 51°13.636 2°56.019 125.7 0.1 325 -999
2012-04-11 06:34:25 51°13.636 2°56.019 125.7 0.1 155 -999
2012-04-11 06:34:30 51°13.636 2°56.019 125.7 0.1 321 -999
2012-04-11 06:34:35 51°13.635 2°56.019 125.7 0.1 170 -999
2012-04-11 06:34:41 51°13.636 2°56.019 125.7 -999 56 -999
2012-04-11 06:34:46 51°13.636 2°56.019 125.7 0.1 99 -999
2012-04-11 06:34:50 51°13.636 2°56.019 125.7 -999 38 -999
2012-04-11 06:34:56 51°13.636 2°56.019 125.7 0.1 325 -999
2012-04-11 06:35:01 51°13.636 2°56.018 125.7 0.1 275 -999
2012-04-11 06:35:06 51°13.636 2°56.019 125.7 0.1 21 -999
2012-04-11 06:35:10 51°13.636 2°56.019 125.7 0.2 113 -999
2012-04-11 06:35:16 51°13.636 2°56.019 125.7 0.2 120 -999
2012-04-11 06:35:20 51°13.636 2°56.019 125.7 0.1 174 -999
2012-04-11 06:35:25 51°13.636 2°56.018 125.7 -999 252 -999
2012-04-11 06:35:30 51°13.636 2°56.018 125.7 -999 192 -999
2012-04-11 06:35:36 51°13.636 2°56.018 125.7 0.1 8 -999
2012-04-11 06:35:41 51°13.636 2°56.019 125.7 0.1 136 -999
2012-04-11 06:35:46 51°13.636 2°56.018 125.7 0.1 328 -999
2012-04-11 06:35:51 51°13.636 2°56.018 125.7 -999 49 -999
2012-04-11 06:35:56 51°13.637 2°56.018 125.7 0.1 349 -999
2012-04-11 06:36:01 51°13.637 2°56.018 125.7 -999 343 -999
2012-04-11 06:36:06 51°13.637 2°56.018 125.7 0.1 284 -999
2012-04-11 06:36:11 51°13.637 2°56.018 125.7 0.1 300 -999
2012-04-11 06:36:15 51°13.637 2°56.018 125.7 -999 232 -999
2012-04-11 06:36:21 51°13.636 2°56.018 125.7 -999 206 -999
2012-04-11 06:36:26 51°13.636 2°56.018 125.7 -999 253 -999
2012-04-11 06:36:31 51°13.636 2°56.018 125.7 -999 296 -999
2012-04-11 06:36:35 51°13.636 2°56.018 125.7 -999 299 -999
2012-04-11 06:36:41 51°13.636 2°56.019 125.7 0.4 119 -999
2012-04-11 06:36:46 51°13.636 2°56.018 125.7 0.1 264 -999
2012-04-11 06:36:51 51°13.636 2°56.019 125.7 0.2 125 -999
2012-04-11 06:36:55 51°13.636 2°56.019 125.7 0.1 118 -999
2012-04-11 06:37:00 51°13.636 2°56.019 125.7 -999 310 -999
2012-04-11 06:37:06 51°13.636 2°56.019 125.7 -999 287 -999
2012-04-11 06:37:10 51°13.636 2°56.019 125.7 -999 137 -999
2012-04-11 06:37:16 51°13.636 2°56.019 125.7 0.1 156 -999
2012-04-11 06:37:20 51°13.636 2°56.018 125.7 0.1 233 -999
2012-04-11 06:37:26 51°13.636 2°56.019 125.7 0.1 321 -999
2012-04-11 06:37:30 51°13.636 2°56.019 125.7 0.1 205 -999
2012-04-11 06:37:35 51°13.636 2°56.019 125.7 0.1 293 -999
2012-04-11 06:37:40 51°13.636 2°56.019 125.7 0.1 310 -999
2012-04-11 06:37:44 51°13.636 2°56.019 125.7 0.1 320 -999
2012-04-11 06:37:51 51°13.636 2°56.019 125.7 0.1 92 -999
2012-04-11 06:37:56 51°13.636 2°56.019 125.7 0.1 341 -999
2012-04-11 06:38:01 51°13.636 2°56.019 125.7 0.1 345 -999
2012-04-11 06:38:05 51°13.636 2°56.02 125.7 0.1 125 -999
2012-04-11 06:38:10 51°13.636 2°56.019 125.7 -999 223 -999
2012-04-11 06:38:16 51°13.636 2°56.019 125.7 0.2 309 -999
2012-04-11 06:38:20 51°13.636 2°56.019 125.7 0.1 14 -999
2012-04-11 06:38:25 51°13.635 2°56.02 125.7 0.2 130 -999
2012-04-11 06:38:30 51°13.635 2°56.02 125.7 0.2 141 -999
2012-04-11 06:38:35 51°13.636 2°56.019 125.7 -999 276 -999
2012-04-11 06:38:40 51°13.635 2°56.02 125.7 0.1 126 -999
2012-04-11 06:38:45 51°13.635 2°56.02 125.7 0.1 128 -999
2012-04-11 06:38:50 51°13.635 2°56.02 125.7 0.2 136 -999
2012-04-11 06:38:55 51°13.635 2°56.02 125.7 0.1 68 -999
2012-04-11 06:39:00 51°13.635 2°56.02 125.7 0.2 131 -999
2012-04-11 06:39:06 51°13.635 2°56.02 125.7 0.2 131 -999
2012-04-11 06:39:10 51°13.635 2°56.02 125.7 0.1 113 -999
2012-04-11 06:39:16 51°13.636 2°56.019 125.7 -999 281 -999
2012-04-11 06:39:21 51°13.636 2°56.019 125.7 0.1 309 -999
2012-04-11 06:39:26 51°13.635 2°56.02 125.7 0.1 131 -999
2012-04-11 06:39:30 51°13.635 2°56.02 125.7 0.1 127 -999
2012-04-11 06:39:36 51°13.635 2°56.019 125.6 0.1 261 -999
2012-04-11 06:39:41 51°13.635 2°56.02 125.6 -999 340 -999
2012-04-11 06:39:45 51°13.635 2°56.02 125.6 0.1 117 -999
2012-04-11 06:39:50 51°13.635 2°56.02 125.6 0.2 122 -999
2012-04-11 06:39:55 51°13.635 2°56.02 125.6 0.1 174 -999
2012-04-11 06:40:01 51°13.636 2°56.019 125.6 0.2 290 -999
2012-04-11 06:40:06 51°13.636 2°56.019 125.6 0.2 292 -999
2012-04-11 06:40:11 51°13.635 2°56.019 125.6 0.2 298 -999
2012-04-11 06:40:15 51°13.635 2°56.02 125.6 0.1 298 -999
2012-04-11 06:40:20 51°13.635 2°56.02 125.6 0.1 132 -999
2012-04-11 06:40:25 51°13.635 2°56.02 125.6 -999 143 -999
2012-04-11 06:40:30 51°13.636 2°56.019 125.5 0.2 306 -999
2012-04-11 06:40:35 51°13.636 2°56.018 125.5 0.2 307 -999
2012-04-11 06:40:41 51°13.635 2°56.019 125.5 -999 160 -999
2012-04-11 06:40:46 51°13.635 2°56.019 125.5 -999 299 -999
2012-04-11 06:40:50 51°13.635 2°56.019 125.5 -999 292 -999
2012-04-11 06:40:56 51°13.635 2°56.019 125.5 -999 328 -999
2012-04-11 06:41:01 51°13.635 2°56.019 125.5 0.2 138 -999
2012-04-11 06:41:06 51°13.635 2°56.019 125.5 0.1 247 -999
2012-04-11 06:41:11 51°13.635 2°56.019 125.8 0.1 288 -999
2012-04-11 06:41:16 51°13.635 2°56.019 126 0.1 292 -999
2012-04-11 06:41:21 51°13.635 2°56.019 126 -999 163 -999
2012-04-11 06:41:26 51°13.635 2°56.02 126 0.2 140 -999
2012-04-11 06:41:31 51°13.636 2°56.019 126 0.1 121 -999
2012-04-11 06:41:36 51°13.636 2°56.019 126 0.1 325 -999
2012-04-11 06:41:40 51°13.636 2°56.019 126 0.1 292 -999
2012-04-11 06:41:46 51°13.636 2°56.018 125.9 0.2 334 -999
2012-04-11 06:41:51 51°13.636 2°56.018 125.8 0.1 346 -999
2012-04-11 06:41:55 51°13.636 2°56.018 125.7 0.1 341 -999
2012-04-11 06:42:00 51°13.636 2°56.018 125.7 0.1 347 -999
2012-04-11 06:42:05 51°13.635 2°56.019 125.6 0.3 134 -999
2012-04-11 06:42:10 51°13.636 2°56.018 125.5 0.2 310 -999
2012-04-11 06:42:15 51°13.636 2°56.018 125.4 0.1 303 -999
2012-04-11 06:42:20 51°13.636 2°56.018 125.3 -999 303 -999
2012-04-11 06:42:25 51°13.636 2°56.018 125.3 0.1 329 -999
2012-04-11 06:42:30 51°13.636 2°56.018 125.3 0.1 333 -999
2012-04-11 06:42:35 51°13.636 2°56.018 125.3 0.1 339 -999
2012-04-11 06:42:40 51°13.636 2°56.017 125.4 0.1 335 -999
2012-04-11 06:42:45 51°13.636 2°56.018 125.5 -999 339 -999
2012-04-11 06:42:51 51°13.636 2°56.018 125.5 -999 316 -999
2012-04-11 06:42:56 51°13.635 2°56.018 125.5 -999 208 -999
2012-04-11 06:43:01 51°13.635 2°56.018 125.5 0.1 157 -999
2012-04-11 06:43:05 51°13.636 2°56.018 125.5 0.1 310 -999
2012-04-11 06:43:10 51°13.636 2°56.018 125.4 -999 126 -999
2012-04-11 06:43:15 51°13.636 2°56.018 125.3 0.1 323 -999
2012-04-11 06:43:21 51°13.636 2°56.018 125.3 -999 141 -999
2012-04-11 06:43:25 51°13.636 2°56.018 125.2 -999 176 -999
2012-04-11 06:43:30 51°13.636 2°56.018 125.1 -999 303 -999
2012-04-11 06:43:35 51°13.636 2°56.019 125.1 0.1 138 -999
2012-04-11 06:43:40 51°13.636 2°56.018 125.1 -999 76 -999
2012-04-11 06:43:45 51°13.636 2°56.018 125.1 0.1 13 -999
2012-04-11 06:43:50 51°13.636 2°56.019 125.1 0.1 121 -999
2012-04-11 06:43:55 51°13.636 2°56.019 125.1 0.1 100 -999
2012-04-11 06:44:01 51°13.636 2°56.019 125.1 0.1 115 -999
2012-04-11 06:44:04 51°13.636 2°56.018 125.1 -999 334 -999
2012-04-11 06:44:10 51°13.636 2°56.019 125.1 0.1 149 -999
2012-04-11 06:44:16 51°13.636 2°56.019 125.1 -999 50 -999
2012-04-11 06:44:21 51°13.636 2°56.019 125.1 0.1 169 -999
2012-04-11 06:44:25 51°13.636 2°56.019 125.1 0.1 171 -999
2012-04-11 06:44:30 51°13.636 2°56.019 125.1 -999 169 -999
2012-04-11 06:44:36 51°13.636 2°56.019 125.1 0.1 340 -999
2012-04-11 06:44:41 51°13.636 2°56.019 125.1 -999 119 -999
2012-04-11 06:44:46 51°13.636 2°56.019 125.1 0.1 138 -999
2012-04-11 06:44:50 51°13.636 2°56.019 125 0.2 153 -999
2012-04-11 06:44:56 51°13.636 2°56.019 125 0.2 159 -999
2012-04-11 06:45:01 51°13.636 2°56.019 125 -999 241 -999
2012-04-11 06:45:06 51°13.636 2°56.019 125 0.1 339 -999
2012-04-11 06:45:10 51°13.637 2°56.019 125 0.2 338 -999
2012-04-11 06:45:16 51°13.637 2°56.019 125 0.2 341 -999
2012-04-11 06:45:21 51°13.637 2°56.019 125 0.1 332 -999
2012-04-11 06:45:26 51°13.636 2°56.019 125 0.1 334 -999
2012-04-11 06:45:30 51°13.636 2°56.019 125 0.1 330 -999
2012-04-11 06:45:35 51°13.636 2°56.019 125 -999 335 -999
2012-04-11 06:45:41 51°13.636 2°56.019 125 -999 152 -999
2012-04-11 06:45:46 51°13.636 2°56.019 125 0.1 163 -999
2012-04-11 06:45:50 51°13.636 2°56.019 125 -999 347 -999
2012-04-11 06:45:56 51°13.636 2°56.019 125 -999 290 -999
2012-04-11 06:46:01 51°13.636 2°56.019 125 -999 140 -999
2012-04-11 06:46:06 51°13.636 2°56.019 125 0.1 158 -999
2012-04-11 06:46:10 51°13.636 2°56.019 125.1 -999 166 -999
2012-04-11 06:46:16 51°13.636 2°56.019 125.1 0.2 156 -999
2012-04-11 06:46:20 51°13.636 2°56.019 125.1 0.1 343 -999
2012-04-11 06:46:25 51°13.636 2°56.019 125.1 0.1 332 -999
2012-04-11 06:46:30 51°13.636 2°56.019 125.1 0.2 330 -999
2012-04-11 06:46:35 51°13.636 2°56.019 125.1 0.1 328 -999
2012-04-11 06:46:40 51°13.636 2°56.019 125.1 0.1 178 -999
2012-04-11 06:46:46 51°13.636 2°56.019 125.1 -999 137 -999
2012-04-11 06:46:51 51°13.637 2°56.019 125 -999 326 -999
2012-04-11 06:46:56 51°13.637 2°56.019 125 0.1 344 -999
2012-04-11 06:47:01 51°13.637 2°56.019 125 0.1 151 -999
2012-04-11 06:47:05 51°13.637 2°56.019 125 0.2 155 -999
2012-04-11 06:47:11 51°13.637 2°56.019 125 0.1 155 -999
2012-04-11 06:47:16 51°13.637 2°56.018 125 0.1 339 -999
2012-04-11 06:47:21 51°13.638 2°56.018 125 0.3 335 -999
2012-04-11 06:47:26 51°13.637 2°56.019 125 0.1 337 -999
2012-04-11 06:47:31 51°13.637 2°56.019 125 0.1 156 -999
2012-04-11 06:47:35 51°13.637 2°56.019 125 0.2 157 -999
2012-04-11 06:47:41 51°13.637 2°56.019 125 0.1 156 -999
2012-04-11 06:47:46 51°13.637 2°56.019 125 0.2 156 -999
2012-04-11 06:47:51 51°13.638 2°56.018 125 -999 323 -999
2012-04-11 06:47:55 51°13.637 2°56.019 125 -999 359 -999
2012-04-11 06:48:01 51°13.638 2°56.019 125 -999 115 -999
2012-04-11 06:48:06 51°13.638 2°56.019 125 -999 142 -999
2012-04-11 06:48:11 51°13.638 2°56.019 125 -999 147 -999
2012-04-11 06:48:16 51°13.638 2°56.019 125.3 0.1 155 -999
2012-04-11 06:48:21 51°13.638 2°56.019 125.6 0.1 296 -999
2012-04-11 06:48:26 51°13.637 2°56.019 126.2 0.1 156 -999
2012-04-11 06:48:31 51°13.637 2°56.019 126.6 0.1 178 -999
2012-04-11 06:48:36 51°13.637 2°56.019 127.1 0.1 169 -999
2012-04-11 06:48:41 51°13.637 2°56.019 127.4 0.1 173 -999
2012-04-11 06:48:46 51°13.637 2°56.019 127.7 0.1 138 -999
2012-04-11 06:48:51 51°13.637 2°56.019 127.8 0.1 140 -999
2012-04-11 06:48:55 51°13.637 2°56.019 127.8 -999 96 -999
2012-04-11 06:49:01 51°13.637 2°56.019 127.7 0.1 345 -999
2012-04-11 06:49:06 51°13.637 2°56.019 127.5 0.1 349 -999
2012-04-11 06:49:10 51°13.637 2°56.019 127.3 -999 113 -999
2012-04-11 06:49:16 51°13.637 2°56.019 127.2 -999 102 -999
2012-04-11 06:49:21 51°13.637 2°56.019 127.2 0.1 104 -999
2012-04-11 06:49:26 51°13.637 2°56.019 127.2 0.1 9 -999
2012-04-11 06:49:31 51°13.637 2°56.019 127.2 0.1 349 -999
2012-04-11 06:49:36 51°13.637 2°56.019 127.2 0.1 3 -999
2012-04-11 06:49:40 51°13.637 2°56.019 127.1 0.1 330 -999
2012-04-11 06:49:46 51°13.636 2°56.02 127.1 0.1 305 -999
2012-04-11 06:49:50 51°13.636 2°56.02 127.1 -999 186 -999
2012-04-11 06:49:55 51°13.636 2°56.02 127.1 0.1 1 -999
2012-04-11 06:50:00 51°13.637 2°56.019 127.1 0.2 347 -999
2012-04-11 06:50:05 51°13.636 2°56.02 127.1 0.1 145 8.7
2012-04-11 06:50:10 51°13.636 2°56.02 127.1 0.2 144 -999
2012-04-11 06:50:15 51°13.636 2°56.02 126.6 0.1 33 -999
2012-04-11 06:50:20 51°13.637 2°56.02 125.7 0.1 350 -999
2012-04-11 06:50:26 51°13.636 2°56.02 124.9 -999 192 -999
2012-04-11 06:50:31 51°13.636 2°56.02 123.9 0.1 320 -999
2012-04-11 06:50:35 51°13.636 2°56.02 123.5 0.1 310 -999
2012-04-11 06:50:41 51°13.636 2°56.02 122.8 -999 231 -999
2012-04-11 06:50:46 51°13.636 2°56.02 122.1 0.1 173 -999
2012-04-11 06:50:51 51°13.636 2°56.02 121.3 0.2 160 -999
2012-04-11 06:50:55 51°13.635 2°56.02 120.7 0.2 164 -999
2012-04-11 06:51:01 51°13.636 2°56.02 119.9 -999 216 -999
2012-04-11 06:51:06 51°13.636 2°56.02 119.1 -999 225 -999
2012-04-11 06:51:11 51°13.636 2°56.02 118.1 0.1 309 -999
2012-04-11 06:51:15 51°13.635 2°56.02 117.4 0.3 161 -999
2012-04-11 06:51:21 51°13.635 2°56.02 116.7 0.1 169 -999
2012-04-11 06:51:26 51°13.635 2°56.02 115.6 0.1 170 -999
2012-04-11 06:51:31 51°13.635 2°56.02 114.7 0.2 169 -999
2012-04-11 06:51:35 51°13.635 2°56.019 113.7 0.1 229 -999
2012-04-11 06:51:41 51°13.634 2°56.02 112.8 0.2 163 -999
2012-04-11 06:51:46 51°13.634 2°56.02 111.8 0.5 158 8.7
2012-04-11 06:51:50 51°13.634 2°56.019 111 0.1 173 8.9
2012-04-11 06:51:55 51°13.634 2°56.019 110.1 0.1 310 -999
2012-04-11 06:52:00 51°13.634 2°56.019 109 0.2 254 8.9
2012-04-11 06:52:05 51°13.635 2°56.018 108.6 0.5 295 8.7
2012-04-11 06:52:10 51°13.635 2°56.016 108.2 0.9 292 -999
2012-04-11 06:52:14 51°13.635 2°56.014 108 1.2 292 -999
2012-04-11 06:52:20 51°13.636 2°56.011 107.9 1.4 290 -999
2012-04-11 06:52:25 51°13.636 2°56.008 108.2 1.5 285 8.7
2012-04-11 06:52:30 51°13.638 2°56.003 108.5 1.9 289 8.7
2012-04-11 06:52:34 51°13.638 2°56 109.1 2.2 291 5.1
2012-04-11 06:52:40 51°13.64 2°55.993 109.7 2.5 293 -999
2012-04-11 06:52:45 51°13.641 2°55.987 110 2.7 292 -999
2012-04-11 06:52:50 51°13.643 2°55.982 110.1 2.9 293 -999
2012-04-11 06:52:56 51°13.644 2°55.974 110.1 3 290 -999
2012-04-11 06:53:01 51°13.646 2°55.967 110.1 3.2 292 -999
2012-04-11 06:53:06 51°13.648 2°55.96 110.1 3.3 291 -999
2012-04-11 06:53:10 51°13.65 2°55.954 110 3.5 291 -999
2012-04-11 06:53:16 51°13.652 2°55.945 110.1 3.7 291 -999
2012-04-11 06:53:20 51°13.653 2°55.939 110.3 3.7 292 -999
2012-04-11 06:53:26 51°13.656 2°55.93 110.6 3.8 292 -999
2012-04-11 06:53:31 51°13.657 2°55.922 111.4 3.8 292 -999
2012-04-11 06:53:36 51°13.659 2°55.915 112.3 3.7 291 -999
2012-04-11 06:53:41 51°13.661 2°55.907 113.3 3.8 293 -999
2012-04-11 06:53:46 51°13.663 2°55.899 114.6 3.8 293 -999
2012-04-11 06:53:50 51°13.665 2°55.893 116.1 3.9 295 -999
2012-04-11 06:53:56 51°13.668 2°55.884 117.6 3.9 296 -999
2012-04-11 06:54:01 51°13.671 2°55.876 118.8 4 297 -999
2012-04-11 06:54:06 51°13.674 2°55.868 120.2 4.1 299 -999
2012-04-11 06:54:10 51°13.676 2°55.861 121.3 4.2 301 -999
2012-04-11 06:54:15 51°13.679 2°55.853 122.5 4.2 301 -999
2012-04-11 06:54:20 51°13.683 2°55.845 123.8 4.5 304 -999
2012-04-11 06:54:25 51°13.686 2°55.837 125.1 4.3 303 -999
2012-04-11 06:54:30 51°13.689 2°55.829 126.5 4.5 305 -999
2012-04-11 06:54:34 51°13.692 2°55.822 128 4.5 306 -999
2012-04-11 06:54:40 51°13.697 2°55.813 129.4 4.6 308 -999
2012-04-11 06:54:45 51°13.701 2°55.805 130.5 4.6 309 -999
2012-04-11 06:54:50 51°13.706 2°55.796 131.5 4.9 311 -999
2012-04-11 06:54:55 51°13.71 2°55.789 132.4 5 313 -999
2012-04-11 06:55:00 51°13.714 2°55.781 133.2 4.7 311 -999
2012-04-11 06:55:05 51°13.719 2°55.774 133.7 4.7 312 -999
2012-04-11 06:55:10 51°13.724 2°55.765 134.2 4.9 314 -999
2012-04-11 06:55:15 51°13.728 2°55.758 134.7 4.7 313 -999
2012-04-11 06:55:20 51°13.733 2°55.75 135.2 4.6 314 -999
2012-04-11 06:55:25 51°13.737 2°55.743 135.9 4.6 314 -999
2012-04-11 06:55:30 51°13.743 2°55.735 136.7 5 317 -999
2012-04-11 06:55:35 51°13.748 2°55.727 137.7 5.1 317 -999
2012-04-11 06:55:40 51°13.753 2°55.72 138.7 4.9 318 -999
2012-04-11 06:55:45 51°13.758 2°55.713 139.7 5 318 -999
2012-04-11 06:55:50 51°13.763 2°55.706 140.7 4.8 319 -999
2012-04-11 06:55:55 51°13.768 2°55.699 141.7 4.8 320 -999
2012-04-11 06:56:00 51°13.774 2°55.692 142.8 5.1 322 -999
2012-04-11 06:56:05 51°13.779 2°55.686 144.1 5.1 322 -999
2012-04-11 06:56:10 51°13.784 2°55.68 145.5 4.6 323 -999
2012-04-11 06:56:15 51°13.789 2°55.673 147.1 4.8 325 -999
2012-04-11 06:56:20 51°13.795 2°55.668 148.9 4.8 326 -999
2012-04-11 06:56:25 51°13.801 2°55.662 150.9 4.7 328 -999
2012-04-11 06:56:30 51°13.806 2°55.656 153 4.9 330 -999
2012-04-11 06:56:35 51°13.812 2°55.652 155.2 4.8 332 -999
2012-04-11 06:56:40 51°13.818 2°55.647 157.5 4.8 334 -999
2012-04-11 06:56:45 51°13.824 2°55.643 159.8 4.7 336 -999
2012-04-11 06:56:50 51°13.83 2°55.64 162.1 4.5 339 -999
2012-04-11 06:56:54 51°13.834 2°55.638 164.6 4.4 342 -999
2012-04-11 06:57:00 51°13.842 2°55.634 167.1 4.7 344 -999
2012-04-11 06:57:05 51°13.848 2°55.632 169.6 4.6 347 -999
2012-04-11 06:57:10 51°13.854 2°55.63 172.1 4.4 349 -999
2012-04-11 06:57:15 51°13.861 2°55.627 174.5 4.7 351 -999
2012-04-11 06:57:20 51°13.868 2°55.626 177.1 5 352 -999
2012-04-11 06:57:25 51°13.874 2°55.625 179.4 4.8 355 -999
2012-04-11 06:57:30 51°13.881 2°55.625 182 4.7 358 -999
2012-04-11 06:57:35 51°13.887 2°55.625 184.5 4.7 -999 -999
2012-04-11 06:57:40 51°13.893 2°55.625 187 4.7 3 -999
2012-04-11 06:57:45 51°13.9 2°55.626 189.6 4.7 5 -999
2012-04-11 06:57:50 51°13.906 2°55.628 192.4 4.6 8 -999
2012-04-11 06:57:55 51°13.912 2°55.63 195 4.5 10 -999
2012-04-11 06:58:00 51°13.918 2°55.632 197.5 4.4 12 -999
2012-04-11 06:58:05 51°13.924 2°55.634 200 4.4 14 -999
2012-04-11 06:58:10 51°13.929 2°55.637 202.6 4.1 18 -999
2012-04-11 06:58:15 51°13.935 2°55.64 205.3 4 21 -999
2012-04-11 06:58:21 51°13.941 2°55.643 208 3.8 22 -999
2012-04-11 06:58:25 51°13.944 2°55.646 210.6 3.7 24 -999
2012-04-11 06:58:31 51°13.95 2°55.65 213 3.5 24 -999
2012-04-11 06:58:36 51°13.953 2°55.653 214.9 3.3 27 -999
2012-04-11 06:58:40 51°13.956 2°55.656 216.9 3.2 28 -999
2012-04-11 06:58:45 51°13.96 2°55.66 218.7 2.9 33 -999
2012-04-11 06:58:50 51°13.962 2°55.663 220.9 2.6 36 -999
2012-04-11 06:58:54 51°13.965 2°55.666 223 2.6 35 -999
2012-04-11 06:59:00 51°13.968 2°55.669 224.7 2.4 35 11.1
2012-04-11 06:59:06 51°13.971 2°55.673 226.8 2.1 41 11.1
2012-04-11 06:59:10 51°13.973 2°55.675 229.3 1.9 37 -999
2012-04-11 06:59:14 51°13.975 2°55.676 231.8 1.5 34 -999
2012-04-11 06:59:21 51°13.977 2°55.677 234.7 1.2 17 -999
2012-04-11 06:59:26 51°13.977 2°55.677 238.4 0.7 -999 11.2
2012-04-11 06:59:31 51°13.977 2°55.677 243.2 0.4 297 -999
2012-04-11 06:59:35 51°13.977 2°55.675 249.1 0.8 273 -999
2012-04-11 06:59:40 51°13.977 2°55.672 255.9 1.3 273 11
2012-04-11 06:59:45 51°13.978 2°55.668 261.8 1.7 278 11
2012-04-11 06:59:50 51°13.978 2°55.663 269.3 2 279 11.1
2012-04-11 06:59:55 51°13.978 2°55.659 276.5 2.1 277 -999
2012-04-11 07:00:00 51°13.981 2°55.652 284.9 2.9 291 -999
2012-04-11 07:00:06 51°13.983 2°55.643 291.6 3.6 294 11.1
2012-04-11 07:00:10 51°13.985 2°55.637 295.5 4 296 -999
2012-04-11 07:00:15 51°13.989 2°55.627 298.1 4.7 299 -999
2012-04-11 07:00:20 51°13.993 2°55.617 300.8 5.5 303 -999
2012-04-11 07:00:26 51°13.998 2°55.604 302.6 6 303 -999
2012-04-11 07:00:31 51°14.003 2°55.593 304.4 6.4 305 -999
2012-04-11 07:00:35 51°14.008 2°55.583 305.4 6.7 306 11.1
2012-04-11 07:00:40 51°14.014 2°55.571 306.4 7 308 11.1
2012-04-11 07:00:45 51°14.02 2°55.559 308.4 7.2 310 -999
2012-04-11 07:00:51 51°14.029 2°55.544 311.6 7.7 314 -999
2012-04-11 07:00:55 51°14.036 2°55.534 315.1 7.9 315 11.1
2012-04-11 07:01:00 51°14.044 2°55.522 317 8 316 11.1
2012-04-11 07:01:05 51°14.052 2°55.509 318 8.3 318 11.1
2012-04-11 07:01:10 51°14.061 2°55.497 319.1 8.5 319 -999
2012-04-11 07:01:15 51°14.071 2°55.485 319.9 8.6 321 -999
2012-04-11 07:01:20 51°14.081 2°55.473 322 8.8 323 11
2012-04-11 07:01:25 51°14.09 2°55.462 323.3 8.8 325 10.9
2012-04-11 07:01:30 51°14.1 2°55.452 325.2 8.8 326 10.9
2012-04-11 07:01:35 51°14.111 2°55.441 327.4 8.9 327 10.9
2012-04-11 07:01:40 51°14.122 2°55.429 328.8 9.1 328 10.9
2012-04-11 07:01:45 51°14.132 2°55.419 329.2 9 328 10.9
2012-04-11 07:01:50 51°14.142 2°55.408 329.7 8.9 328 10.9
2012-04-11 07:01:55 51°14.154 2°55.397 330.5 9.1 328 10.8
2012-04-11 07:01:59 51°14.162 2°55.389 330.6 9.1 328 10.8
2012-04-11 07:02:04 51°14.173 2°55.378 330.3 9.2 329 10.8
2012-04-11 07:02:09 51°14.184 2°55.368 330.9 9.2 328 10.8
2012-04-11 07:02:14 51°14.195 2°55.357 331.2 9.3 330 10.9
2012-04-11 07:02:19 51°14.206 2°55.347 331.8 9.2 329 10.9
2012-04-11 07:02:23 51°14.215 2°55.339 331.9 9.3 330 10.9
2012-04-11 07:02:29 51°14.229 2°55.327 332.2 9.4 330 10.8
2012-04-11 07:02:34 51°14.24 2°55.316 332.5 9.3 330 -999
2012-04-11 07:02:39 51°14.251 2°55.306 333 9.4 330 10.8
2012-04-11 07:02:43 51°14.26 2°55.298 333 9.5 330 10.8
2012-04-11 07:02:48 51°14.272 2°55.288 332.8 9.6 331 10.7
2012-04-11 07:02:54 51°14.286 2°55.275 333.2 9.6 331 -999
2012-04-11 07:02:59 51°14.297 2°55.265 333.2 9.6 331 -999
2012-04-11 07:03:05 51°14.31 2°55.252 332.6 9.4 329 -999
2012-04-11 07:03:10 51°14.322 2°55.242 332 9.5 330 -999
2012-04-11 07:03:15 51°14.334 2°55.231 331.9 9.6 330 -999
2012-04-11 07:03:20 51°14.345 2°55.221 332 9.6 330 -999
2012-04-11 07:03:25 51°14.356 2°55.21 331.7 9.5 329 -999
2012-04-11 07:03:30 51°14.368 2°55.199 331.4 9.6 330 -999
2012-04-11 07:03:35 51°14.379 2°55.188 331.7 9.6 330 -999
2012-04-11 07:03:40 51°14.391 2°55.178 331.9 9.6 330 10.8
2012-04-11 07:03:45 51°14.402 2°55.167 332 9.8 330 10.9
2012-04-11 07:03:50 51°14.414 2°55.156 332.2 9.8 331 10.9
2012-04-11 07:03:55 51°14.426 2°55.146 332.7 9.7 331 10.9
2012-04-11 07:04:00 51°14.439 2°55.136 333.8 10 332 10.9
2012-04-11 07:04:06 51°14.453 2°55.123 334.3 10.2 331 -999
2012-04-11 07:04:10 51°14.463 2°55.114 333.7 10.4 331 11.1
2012-04-11 07:04:15 51°14.477 2°55.104 333.4 10.4 332 11.1
2012-04-11 07:04:20 51°14.49 2°55.093 334 10.6 332 11.2
2012-04-11 07:04:25 51°14.503 2°55.082 334.2 10.8 332 11.2
2012-04-11 07:04:30 51°14.516 2°55.07 333.7 10.8 330 11.1
2012-04-11 07:04:35 51°14.528 2°55.058 332.6 10.7 330 11.1
2012-04-11 07:04:39 51°14.539 2°55.048 332.2 10.9 329 11.6
2012-04-11 07:04:43 51°14.549 2°55.037 332 11.2 328 12.1
2012-04-11 07:04:49 51°14.565 2°55.02 330.7 11.4 326 12.2
2012-04-11 07:04:53 51°14.576 2°55.009 329.7 11.4 326 12.3
2012-04-11 07:04:58 51°14.589 2°54.994 329.1 11.6 325 12.6
2012-04-11 07:05:03 51°14.602 2°54.98 328.2 11.6 324 12.5
2012-04-11 07:05:08 51°14.615 2°54.964 327.8 11.8 324 12.4
2012-04-11 07:05:12 51°14.625 2°54.952 328.1 11.9 324 12.5
2012-04-11 07:05:17 51°14.639 2°54.937 328.8 12.1 324 12.2
2012-04-11 07:05:22 51°14.653 2°54.92 327.6 12.3 322 12.1
2012-04-11 07:05:27 51°14.667 2°54.903 326.8 12.4 323 12.1
2012-04-11 07:05:31 51°14.678 2°54.89 326.9 12.4 323 11.9
2012-04-11 07:05:37 51°14.694 2°54.87 327.6 12.5 323 12
2012-04-11 07:05:42 51°14.709 2°54.853 327.7 12.7 323 11.9
2012-04-11 07:05:47 51°14.723 2°54.836 327.6 12.7 323 11.9
2012-04-11 07:05:52 51°14.737 2°54.819 327.1 12.8 323 12
2012-04-11 07:05:57 51°14.751 2°54.803 327.8 12.9 325 11.9
2012-04-11 07:06:02 51°14.766 2°54.787 329.6 12.9 326 11.9
2012-04-11 07:06:07 51°14.781 2°54.771 330.3 12.9 326 11.9
2012-04-11 07:06:11 51°14.793 2°54.758 329.1 13.1 324 12.1
2012-04-11 07:06:17 51°14.81 2°54.738 328.4 13 325 12
2012-04-11 07:06:22 51°14.825 2°54.721 328.6 13 325 12.1
2012-04-11 07:06:27 51°14.839 2°54.704 328.1 12.9 324 12.1
2012-04-11 07:06:32 51°14.853 2°54.687 327.4 13 324 12.2
2012-04-11 07:06:37 51°14.869 2°54.671 328.3 13.1 326 12.2
2012-04-11 07:06:42 51°14.883 2°54.654 328.9 13 325 12.1
2012-04-11 07:06:47 51°14.898 2°54.638 328.9 13 326 12.1
2012-04-11 07:06:52 51°14.913 2°54.622 328.9 13 326 12.2
2012-04-11 07:06:57 51°14.928 2°54.607 330.4 12.9 328 12
2012-04-11 07:07:02 51°14.943 2°54.591 331.1 13 326 11.9
2012-04-11 07:07:07 51°14.957 2°54.574 329.6 12.9 324 11.9
2012-04-11 07:07:12 51°14.971 2°54.557 327.6 12.8 323 11.5
2012-04-11 07:07:17 51°14.985 2°54.54 326.9 12.9 323 11.7
2012-04-11 07:07:22 51°15 2°54.523 326.5 12.9 323 11.6
2012-04-11 07:07:27 51°15.014 2°54.506 326.1 12.8 323 11.7
2012-04-11 07:07:32 51°15.029 2°54.489 326.6 12.9 324 11.5
2012-04-11 07:07:37 51°15.043 2°54.473 327.7 12.9 324 11.7
2012-04-11 07:07:42 51°15.057 2°54.456 327.4 12.8 323 11.4
2012-04-11 07:07:47 51°15.072 2°54.439 326.9 12.9 325 11.4
2012-04-11 07:07:51 51°15.083 2°54.426 326.8 12.8 323 11.5
2012-04-11 07:07:57 51°15.1 2°54.404 325.9 12.8 322 11.5
2012-04-11 07:08:02 51°15.113 2°54.386 324.8 12.7 321 11.3
2012-04-11 07:08:07 51°15.127 2°54.368 323.5 12.9 321 11.5
2012-04-11 07:08:11 51°15.138 2°54.354 323.2 12.9 321 11.5
2012-04-11 07:08:17 51°15.155 2°54.332 323.3 13 320 11.4
2012-04-11 07:08:22 51°15.168 2°54.314 322.4 12.9 319 11.6
2012-04-11 07:08:27 51°15.182 2°54.295 322 12.8 319 11.6
2012-04-11 07:08:31 51°15.192 2°54.28 321.6 12.9 319 11.7
2012-04-11 07:08:37 51°15.208 2°54.258 321.6 12.7 319 11.6
2012-04-11 07:08:42 51°15.222 2°54.24 322.3 12.8 320 11.9
2012-04-11 07:08:47 51°15.236 2°54.222 322.7 12.7 320 11.7
2012-04-11 07:08:52 51°15.25 2°54.204 323.1 12.8 321 11.8
2012-04-11 07:08:57 51°15.264 2°54.186 323.5 12.9 321 11.7
2012-04-11 07:09:02 51°15.278 2°54.169 323.9 13 322 12
2012-04-11 07:09:07 51°15.292 2°54.151 324.2 13.1 321 11.8
2012-04-11 07:09:12 51°15.305 2°54.133 323.1 12.8 320 11.9
2012-04-11 07:09:17 51°15.318 2°54.114 322.1 12.7 319 11.9
2012-04-11 07:09:22 51°15.332 2°54.096 322 12.9 321 12
2012-04-11 07:09:27 51°15.346 2°54.078 323.3 12.8 322 11.9
2012-04-11 07:09:32 51°15.36 2°54.062 324.8 12.7 323 12.1
2012-04-11 07:09:37 51°15.375 2°54.045 326.2 12.9 324 12
2012-04-11 07:09:42 51°15.389 2°54.028 326.7 12.9 324 11.9
2012-04-11 07:09:47 51°15.403 2°54.011 327 12.8 324 12.1
2012-04-11 07:09:52 51°15.418 2°53.995 327.7 12.8 325 12
2012-04-11 07:09:57 51°15.431 2°53.979 328.2 12.6 325 12.2
2012-04-11 07:10:02 51°15.446 2°53.963 328.8 12.7 326 12.1
2012-04-11 07:10:07 51°15.461 2°53.948 329.5 12.7 326 12
2012-04-11 07:10:12 51°15.475 2°53.931 329.5 12.7 325 12.1
2012-04-11 07:10:17 51°15.489 2°53.915 328.9 12.5 324 12.2
2012-04-11 07:10:22 51°15.503 2°53.898 327.6 12.5 322 12.2
2012-04-11 07:10:27 51°15.516 2°53.881 326.6 12.5 321 12.2
2012-04-11 07:10:31 51°15.527 2°53.867 325.4 12.5 321 12.1
2012-04-11 07:10:37 51°15.543 2°53.846 325.4 12.5 321 12.1
2012-04-11 07:10:42 51°15.557 2°53.829 325.4 12.4 321 12.2
2012-04-11 07:10:47 51°15.57 2°53.811 325.2 12.5 320 12.3
2012-04-11 07:10:52 51°15.584 2°53.794 325 12.4 320 12
2012-04-11 07:10:57 51°15.597 2°53.776 324.6 12.6 320 12.2
2012-04-11 07:11:02 51°15.61 2°53.759 324.7 12.5 321 12.1
2012-04-11 07:11:07 51°15.624 2°53.741 325.2 12.5 322 12.3
2012-04-11 07:11:12 51°15.638 2°53.725 326.4 12.6 323 12.2
2012-04-11 07:11:17 51°15.652 2°53.709 327.4 12.4 324 12.1
2012-04-11 07:11:22 51°15.665 2°53.692 328.1 12.3 322 12.2
2012-04-11 07:11:27 51°15.679 2°53.675 326.4 12.5 322 12.3
2012-04-11 07:11:32 51°15.692 2°53.657 325.6 12.4 321 12.3
2012-04-11 07:11:37 51°15.706 2°53.641 325.4 12.4 322 12.3
2012-04-11 07:11:42 51°15.72 2°53.624 326 12.6 323 12.4
2012-04-11 07:11:47 51°15.734 2°53.608 327.2 12.4 325 12.4
2012-04-11 07:11:52 51°15.748 2°53.592 328.9 12.5 325 12.7
2012-04-11 07:11:57 51°15.762 2°53.576 329.5 12.4 325 12.5
2012-04-11 07:12:02 51°15.777 2°53.56 329.5 12.5 325 12.6
2012-04-11 07:12:07 51°15.791 2°53.544 329.6 12.6 325 12.6
2012-04-11 07:12:12 51°15.805 2°53.529 329.6 12.7 326 12.6
2012-04-11 07:12:17 51°15.819 2°53.513 329.6 12.4 325 12.6
2012-04-11 07:12:22 51°15.834 2°53.497 330.1 12.6 326 12.6
2012-04-11 07:12:27 51°15.849 2°53.481 330.5 12.7 326 12.7
2012-04-11 07:12:32 51°15.863 2°53.466 330.8 12.7 327 12.8
2012-04-11 07:12:37 51°15.878 2°53.45 330.9 12.8 326 12.8
2012-04-11 07:12:42 51°15.892 2°53.434 330.6 12.6 325 12.6
2012-04-11 07:12:47 51°15.907 2°53.419 329.9 12.7 326 12.8
2012-04-11 07:12:51 51°15.918 2°53.406 329.6 12.7 325 12.8
2012-04-11 07:12:57 51°15.935 2°53.387 329.3 12.6 325 12.7
2012-04-11 07:13:02 51°15.95 2°53.371 329.1 12.6 325 13
2012-04-11 07:13:07 51°15.965 2°53.355 329.2 12.8 326 12.7
2012-04-11 07:13:12 51°15.979 2°53.339 329.9 12.8 327 12.8
2012-04-11 07:13:17 51°15.993 2°53.324 330.9 12.6 327 12.6
2012-04-11 07:13:22 51°16.008 2°53.31 331.5 12.6 328 12.7
2012-04-11 07:13:27 51°16.023 2°53.295 332.2 12.7 329 12.8
2012-04-11 07:13:32 51°16.038 2°53.281 333 12.6 330 12.8
2012-04-11 07:13:37 51°16.053 2°53.268 333.7 12.6 331 12.6
2012-04-11 07:13:42 51°16.069 2°53.255 335 12.6 332 12.8
2012-04-11 07:13:47 51°16.085 2°53.242 336.1 12.6 333 12.7
2012-04-11 07:13:52 51°16.1 2°53.229 337 12.6 333 12.6
2012-04-11 07:13:57 51°16.116 2°53.217 337.6 12.5 333 12.5
2012-04-11 07:14:02 51°16.131 2°53.205 338.5 12.6 335 12.8
2012-04-11 07:14:07 51°16.148 2°53.193 339.2 12.6 335 12.6
2012-04-11 07:14:12 51°16.163 2°53.182 339.7 12.6 336 12.8
2012-04-11 07:14:17 51°16.179 2°53.171 340.5 12.3 336 12.7
2012-04-11 07:14:22 51°16.195 2°53.159 340.8 12.6 336 12.8
2012-04-11 07:14:27 51°16.211 2°53.148 341.1 12.7 337 12.8
2012-04-11 07:14:32 51°16.228 2°53.138 341.2 12.7 337 12.7
2012-04-11 07:14:37 51°16.244 2°53.127 341.4 12.7 337 12.7
2012-04-11 07:14:42 51°16.26 2°53.115 341.2 12.6 337 12.9
2012-04-11 07:14:47 51°16.275 2°53.104 340.9 12.5 336 12.7
2012-04-11 07:14:51 51°16.288 2°53.095 340.5 12.6 336 12.9
2012-04-11 07:14:57 51°16.307 2°53.081 340.1 12.6 335 13
2012-04-11 07:15:02 51°16.324 2°53.07 339.8 12.7 335 12.8
2012-04-11 07:15:07 51°16.341 2°53.058 339.3 12.9 335 12.8
2012-04-11 07:15:11 51°16.353 2°53.049 339.3 12.7 335 12.7
2012-04-11 07:15:17 51°16.372 2°53.035 339.2 12.6 335 12.9
2012-04-11 07:15:22 51°16.388 2°53.023 339.2 12.7 335 12.7
2012-04-11 07:15:27 51°16.404 2°53.011 339.1 12.7 335 13
2012-04-11 07:15:32 51°16.42 2°52.999 339.2 12.8 335 12.7
2012-04-11 07:15:37 51°16.436 2°52.987 339.3 12.8 335 12.8
2012-04-11 07:15:42 51°16.452 2°52.975 339 12.7 335 12.8
2012-04-11 07:15:47 51°16.467 2°52.963 338.7 12.7 335 12.5
2012-04-11 07:15:51 51°16.479 2°52.953 338.3 12.6 334 12.6
2012-04-11 07:15:57 51°16.498 2°52.938 338 12.6 333 12.6
2012-04-11 07:16:02 51°16.514 2°52.926 337.6 12.7 333 12.6
2012-04-11 07:16:07 51°16.529 2°52.913 336.9 12.6 332 12.5
2012-04-11 07:16:12 51°16.545 2°52.899 336.3 12.6 332 12.4
2012-04-11 07:16:17 51°16.561 2°52.886 335.7 12.8 331 12.4
2012-04-11 07:16:22 51°16.575 2°52.872 334.9 12.6 330 12.1
2012-04-11 07:16:27 51°16.591 2°52.858 334 12.9 331 12.2
2012-04-11 07:16:32 51°16.607 2°52.845 334 12.8 331 12
2012-04-11 07:16:37 51°16.622 2°52.831 334.7 12.7 332 12.1
2012-04-11 07:16:42 51°16.638 2°52.818 335.4 12.7 332 12
2012-04-11 07:16:47 51°16.653 2°52.806 336.7 12.6 333 11.7
2012-04-11 07:16:51 51°16.666 2°52.796 337.3 12.7 333 11.7
2012-04-11 07:16:57 51°16.685 2°52.781 337.8 12.7 334 11.6
2012-04-11 07:17:02 51°16.7 2°52.769 338.5 12.6 335 11.3
2012-04-11 07:17:07 51°16.716 2°52.757 339 12.7 335 11.1
2012-04-11 07:17:11 51°16.729 2°52.748 339.6 12.6 336 11
2012-04-11 07:17:17 51°16.748 2°52.734 340.3 12.5 336 10.6
2012-04-11 07:17:22 51°16.764 2°52.724 340.9 12.5 337 10.2
2012-04-11 07:17:27 51°16.78 2°52.713 341.8 12.5 338 10.4
2012-04-11 07:17:32 51°16.796 2°52.703 342.4 12.3 338 10.2
2012-04-11 07:17:37 51°16.812 2°52.693 342.7 12.4 338 10.4
2012-04-11 07:17:42 51°16.828 2°52.682 342.5 12.4 337 10.3
2012-04-11 07:17:47 51°16.844 2°52.672 341.9 12.5 338 10.1
2012-04-11 07:17:51 51°16.857 2°52.663 341.7 12.5 337 10.1
2012-04-11 07:17:57 51°16.877 2°52.651 341.9 12.6 339 10.1
2012-04-11 07:18:02 51°16.893 2°52.641 342.3 12.5 338 10.2
2012-04-11 07:18:07 51°16.909 2°52.63 342.4 12.5 338 10.3
2012-04-11 07:18:12 51°16.926 2°52.62 342.1 12.7 338 10.4
2012-04-11 07:18:17 51°16.942 2°52.61 342.3 12.7 339 10.5
2012-04-11 07:18:22 51°16.958 2°52.599 342.1 12.7 338 10.5
2012-04-11 07:18:27 51°16.974 2°52.589 342.1 12.5 338 10.4
2012-04-11 07:18:32 51°16.991 2°52.579 342.2 12.5 339 10.3
2012-04-11 07:18:37 51°17.007 2°52.569 342.4 12.5 338 10.4
2012-04-11 07:18:42 51°17.023 2°52.558 341.8 12.6 337 10.2
2012-04-11 07:18:47 51°17.039 2°52.548 341.2 12.5 338 10.3
2012-04-11 07:18:52 51°17.055 2°52.537 341.2 12.4 337 10.3
2012-04-11 07:18:57 51°17.071 2°52.526 340.8 12.4 337 10.3
2012-04-11 07:19:02 51°17.087 2°52.515 340.5 12.6 336 10.3
2012-04-11 07:19:07 51°17.103 2°52.503 340.1 12.6 336 10.4
2012-04-11 07:19:11 51°17.116 2°52.494 339.3 12.7 334 10.4
2012-04-11 07:19:17 51°17.134 2°52.479 338 12.5 334 10.7
2012-04-11 07:19:22 51°17.15 2°52.466 337.6 12.6 333 10.5
2012-04-11 07:19:27 51°17.165 2°52.453 337 12.7 333 10.6
2012-04-11 07:19:32 51°17.18 2°52.44 336.7 12.5 332 10.4
2012-04-11 07:19:37 51°17.196 2°52.427 336.1 12.6 332 10.6
2012-04-11 07:19:42 51°17.211 2°52.414 336.3 12.6 331 10.5
2012-04-11 07:19:47 51°17.226 2°52.4 335.8 12.6 331 10.6
2012-04-11 07:19:51 51°17.239 2°52.389 335.6 12.6 332 11
2012-04-11 07:19:57 51°17.257 2°52.373 335.5 12.6 330 10.9
2012-04-11 07:20:02 51°17.272 2°52.359 334.8 12.5 330 10.8
2012-04-11 07:20:07 51°17.287 2°52.345 334 12.6 330 11.1
2012-04-11 07:20:12 51°17.302 2°52.331 333.9 12.7 330 11.1
2012-04-11 07:20:17 51°17.318 2°52.318 334.1 12.6 331 10.9
2012-04-11 07:20:22 51°17.333 2°52.303 334.2 12.6 329 10.7
2012-04-11 07:20:27 51°17.348 2°52.29 334.3 12.6 331 11.1
2012-04-11 07:20:31 51°17.36 2°52.278 334.3 12.6 330 11.1
2012-04-11 07:20:37 51°17.379 2°52.263 334 12.7 331 11.5
2012-04-11 07:20:42 51°17.394 2°52.249 334.2 12.7 331 11.5
2012-04-11 07:20:47 51°17.409 2°52.236 334.8 12.7 332 11.8
2012-04-11 07:20:52 51°17.425 2°52.222 335 12.7 332 11.7
2012-04-11 07:20:57 51°17.441 2°52.21 335.1 12.7 333 11.8
2012-04-11 07:21:02 51°17.456 2°52.196 335.2 12.5 332 11.7
2012-04-11 07:21:07 51°17.471 2°52.183 335.2 12.6 333 12
2012-04-11 07:21:12 51°17.487 2°52.17 335.4 12.6 332 11.9
2012-04-11 07:21:17 51°17.503 2°52.157 335.2 12.7 332 11.9
2012-04-11 07:21:22 51°17.518 2°52.144 334.7 12.7 332 12
2012-04-11 07:21:27 51°17.533 2°52.131 334.9 12.6 332 11.9
2012-04-11 07:21:32 51°17.549 2°52.118 335.1 12.7 332 11.8
2012-04-11 07:21:37 51°17.564 2°52.105 335.1 12.6 333 11.7
2012-04-11 07:21:42 51°17.58 2°52.092 335.8 12.7 333 11.7
2012-04-11 07:21:47 51°17.595 2°52.079 335.8 12.6 333 11.7
2012-04-11 07:21:52 51°17.612 2°52.067 335.9 12.8 333 11.6
2012-04-11 07:21:57 51°17.628 2°52.055 336.1 12.7 334 11.4
2012-04-11 07:22:02 51°17.643 2°52.042 336.6 12.6 335 11.3
2012-04-11 07:22:07 51°17.659 2°52.03 337.2 12.6 335 11.4
2012-04-11 07:22:11 51°17.672 2°52.021 337.8 12.6 336 10.9
2012-04-11 07:22:17 51°17.69 2°52.007 339 12.5 335 10.9
2012-04-11 07:22:22 51°17.706 2°51.996 339.3 12.6 336 10.7
2012-04-11 07:22:27 51°17.722 2°51.985 339.9 12.5 336 10.9
2012-04-11 07:22:32 51°17.738 2°51.974 340.7 12.4 338 10.7
2012-04-11 07:22:37 51°17.754 2°51.964 341.9 12.5 338 10.7
2012-04-11 07:22:42 51°17.77 2°51.954 343.1 12.6 339 10.8
2012-04-11 07:22:47 51°17.786 2°51.944 343.5 12.5 339 10.7
2012-04-11 07:22:52 51°17.802 2°51.935 344.2 12.4 341 10.7
2012-04-11 07:22:57 51°17.819 2°51.926 345.5 12.4 339 10.6
2012-04-11 07:23:02 51°17.835 2°51.917 344.5 12.5 341 10.8
2012-04-11 07:23:07 51°17.852 2°51.907 344.8 12.5 339 10.7
2012-04-11 07:23:12 51°17.868 2°51.897 344.8 12.4 339 10.7
2012-04-11 07:23:17 51°17.884 2°51.887 344.2 12.6 340 10.8
2012-04-11 07:23:22 51°17.901 2°51.878 344.7 12.6 339 10.8
2012-04-11 07:23:27 51°17.918 2°51.868 344.4 12.8 339 10.6
2012-04-11 07:23:32 51°17.933 2°51.858 344.4 12.4 339 10.8
2012-04-11 07:23:37 51°17.95 2°51.848 344.6 12.6 340 10.9
2012-04-11 07:23:42 51°17.966 2°51.838 344.5 12.7 339 11.1
2012-04-11 07:23:47 51°17.982 2°51.828 344.1 12.6 339 10.8
2012-04-11 07:23:51 51°17.996 2°51.82 344.1 12.8 338 11
2012-04-11 07:23:57 51°18.015 2°51.808 343 12.7 338 10.9
2012-04-11 07:24:02 51°18.031 2°51.797 342.9 12.7 338 11.1
2012-04-11 07:24:07 51°18.047 2°51.786 342.5 12.5 337 11.2
2012-04-11 07:24:11 51°18.06 2°51.778 342.6 12.7 338 11.2
2012-04-11 07:24:17 51°18.08 2°51.765 342.8 12.7 338 11.2
2012-04-11 07:24:22 51°18.096 2°51.754 342.6 12.5 337 11.2
2012-04-11 07:24:27 51°18.112 2°51.744 342.1 12.5 337 11.2
2012-04-11 07:24:32 51°18.128 2°51.733 342.1 12.5 337 11.4
2012-04-11 07:24:37 51°18.144 2°51.721 341.9 12.4 336 11.7
2012-04-11 07:24:42 51°18.161 2°51.71 341.4 12.7 336 11.4
2012-04-11 07:24:47 51°18.177 2°51.699 340.9 12.7 337 11.7
2012-04-11 07:24:52 51°18.193 2°51.687 340.9 12.7 334 11.8
2012-04-11 07:24:57 51°18.209 2°51.675 339.6 12.7 335 12
2012-04-11 07:25:02 51°18.224 2°51.663 338.7 12.6 333 11.8
2012-04-11 07:25:07 51°18.24 2°51.65 337.8 12.6 333 11.9
2012-04-11 07:25:12 51°18.255 2°51.637 337.4 12.6 332 12.1
2012-04-11 07:25:17 51°18.271 2°51.624 336.8 12.8 333 12.4
2012-04-11 07:25:22 51°18.286 2°51.611 336.8 12.6 331 12.2
2012-04-11 07:25:27 51°18.302 2°51.597 335.8 12.7 331 12.5
2012-04-11 07:25:32 51°18.317 2°51.583 335.5 12.9 331 12.5
2012-04-11 07:25:37 51°18.332 2°51.57 335.4 12.7 332 12.5
2012-04-11 07:25:42 51°18.347 2°51.556 335.9 12.6 331 12.7
2012-04-11 07:25:47 51°18.363 2°51.544 336.3 12.7 333 12.6
2012-04-11 07:25:52 51°18.379 2°51.53 337 12.7 332 12.8
2012-04-11 07:25:57 51°18.395 2°51.517 336.8 12.7 332 12.9
2012-04-11 07:26:02 51°18.41 2°51.505 337.1 12.7 333 13
2012-04-11 07:26:07 51°18.426 2°51.493 337.9 12.7 334 13.3
2012-04-11 07:26:11 51°18.439 2°51.483 338.8 12.8 334 13.3
2012-04-11 07:26:17 51°18.458 2°51.467 338 12.7 333 13.5
2012-04-11 07:26:22 51°18.473 2°51.454 337.6 12.8 333 13.5
2012-04-11 07:26:27 51°18.489 2°51.442 337.8 12.8 334 13.5
2012-04-11 07:26:32 51°18.505 2°51.429 338.3 12.7 334 13.7
2012-04-11 07:26:37 51°18.52 2°51.417 338.7 12.6 335 13.6
2012-04-11 07:26:42 51°18.536 2°51.406 339.9 12.7 335 13.9
2012-04-11 07:26:47 51°18.553 2°51.395 340.5 12.7 337 13.9
2012-04-11 07:26:51 51°18.566 2°51.386 341.5 12.8 336 14
2012-04-11 07:26:57 51°18.585 2°51.373 341.8 12.8 338 14.2
2012-04-11 07:27:02 51°18.601 2°51.362 342.4 12.6 336 14.2
2012-04-11 07:27:07 51°18.618 2°51.35 341.7 12.8 336 14.2
2012-04-11 07:27:12 51°18.633 2°51.339 340.7 12.7 335 14.2
2012-04-11 07:27:17 51°18.649 2°51.327 340.1 12.7 335 14.3
2012-04-11 07:27:22 51°18.665 2°51.314 339.1 12.7 333 14.6
2012-04-11 07:27:27 51°18.68 2°51.301 338.2 12.7 333 14.7
2012-04-11 07:27:32 51°18.696 2°51.288 337.6 12.8 333 14.6
2012-04-11 07:27:37 51°18.712 2°51.276 337.6 12.8 333 14.8
2012-04-11 07:27:42 51°18.728 2°51.263 337.4 12.7 333 14.7
2012-04-11 07:27:47 51°18.744 2°51.25 337.5 12.9 333 14.6
2012-04-11 07:27:52 51°18.759 2°51.238 337.6 12.7 334 14.7
2012-04-11 07:27:57 51°18.775 2°51.225 338.3 12.9 334 14.8
2012-04-11 07:28:02 51°18.792 2°51.214 339 12.9 336 15
2012-04-11 07:28:07 51°18.808 2°51.202 339.9 12.8 336 14.9
2012-04-11 07:28:12 51°18.824 2°51.191 341 12.8 337 14.9
2012-04-11 07:28:17 51°18.84 2°51.18 341.3 12.7 337 15
2012-04-11 07:28:22 51°18.857 2°51.169 341.9 12.8 338 15.1
2012-04-11 07:28:27 51°18.873 2°51.159 342.4 12.8 338 15.2
2012-04-11 07:28:31 51°18.886 2°51.15 342.6 12.7 338 15.4
2012-04-11 07:28:37 51°18.906 2°51.137 342.4 12.7 337 15
2012-04-11 07:28:42 51°18.921 2°51.126 342 12.6 336 15.3
2012-04-11 07:28:47 51°18.937 2°51.115 341.5 12.7 336 15.2
2012-04-11 07:28:51 51°18.95 2°51.105 340.3 12.6 334 15.2
2012-04-11 07:28:57 51°18.969 2°51.091 339.4 12.7 335 15.3
2012-04-11 07:29:02 51°18.985 2°51.078 339.1 12.7 333 15.4
2012-04-11 07:29:07 51°19 2°51.065 337.6 12.6 332 15.5
2012-04-11 07:29:12 51°19.016 2°51.051 336.5 12.6 331 15.3
2012-04-11 07:29:17 51°19.032 2°51.039 336 12.6 332 15.4
2012-04-11 07:29:22 51°19.047 2°51.025 336.2 12.6 332 15.5
2012-04-11 07:29:27 51°19.062 2°51.012 336.2 12.7 332 15.3
2012-04-11 07:29:32 51°19.078 2°50.999 336.3 12.9 332 15.3
2012-04-11 07:29:37 51°19.094 2°50.985 336.4 13 333 15.4
2012-04-11 07:29:42 51°19.109 2°50.971 336.1 12.7 331 15.4
2012-04-11 07:29:47 51°19.125 2°50.958 335.7 12.6 333 15.2
2012-04-11 07:29:52 51°19.14 2°50.945 336.6 12.7 332 15.2
2012-04-11 07:29:57 51°19.156 2°50.933 337.5 12.8 335 15.3
2012-04-11 07:30:02 51°19.172 2°50.92 338.2 12.8 333 15.4
2012-04-11 07:30:07 51°19.187 2°50.908 338.5 12.5 334 15.2
2012-04-11 07:30:12 51°19.203 2°50.896 339.1 12.6 334 15.2
2012-04-11 07:30:17 51°19.22 2°50.885 339.5 12.7 336 14.8
2012-04-11 07:30:22 51°19.236 2°50.874 340.3 12.7 336 15
2012-04-11 07:30:27 51°19.253 2°50.863 341 12.7 337 14.7
2012-04-11 07:30:31 51°19.265 2°50.854 341.8 12.6 337 14.9
2012-04-11 07:30:37 51°19.285 2°50.841 341.9 12.8 338 14.8
2012-04-11 07:30:42 51°19.302 2°50.83 341.8 12.8 337 14.6
2012-04-11 07:30:47 51°19.318 2°50.819 341.7 12.8 337 14.7
2012-04-11 07:30:52 51°19.334 2°50.808 341.9 12.7 338 14.9
2012-04-11 07:30:57 51°19.349 2°50.797 342.1 12.6 336 14.4
2012-04-11 07:31:02 51°19.366 2°50.786 341.2 12.7 337 14.4
2012-04-11 07:31:07 51°19.382 2°50.774 340.7 12.7 335 14.3
2012-04-11 07:31:11 51°19.394 2°50.764 340.2 12.6 336 14.1
2012-04-11 07:31:17 51°19.414 2°50.751 340.1 12.7 337 13.9
2012-04-11 07:31:22 51°19.43 2°50.739 340.5 12.7 335 13.5
2012-04-11 07:31:27 51°19.446 2°50.728 339.8 12.6 336 13.2
2012-04-11 07:31:32 51°19.462 2°50.716 339.8 12.6 335 13
2012-04-11 07:31:37 51°19.478 2°50.704 339.4 12.7 334 12.9
2012-04-11 07:31:42 51°19.494 2°50.692 338.5 12.8 334 12.7
2012-04-11 07:31:47 51°19.51 2°50.679 337.6 12.7 334 12.9
2012-04-11 07:31:52 51°19.526 2°50.666 337.6 12.8 333 12.8
2012-04-11 07:31:57 51°19.541 2°50.654 336.9 12.7 334 12.5
2012-04-11 07:32:02 51°19.557 2°50.641 337.2 12.8 333 12.4
2012-04-11 07:32:07 51°19.573 2°50.628 336.9 12.7 333 12.3
2012-04-11 07:32:12 51°19.589 2°50.616 337.5 12.7 333 12.4
2012-04-11 07:32:17 51°19.605 2°50.604 337.5 12.8 334 12.3
2012-04-11 07:32:22 51°19.621 2°50.591 337.7 12.8 333 12
2012-04-11 07:32:27 51°19.636 2°50.578 337.6 12.7 332 12.2
2012-04-11 07:32:32 51°19.651 2°50.564 336.8 12.6 331 12.1
2012-04-11 07:32:37 51°19.667 2°50.55 335.8 12.7 330 12.3
2012-04-11 07:32:42 51°19.683 2°50.537 335.4 12.8 332 12.5
2012-04-11 07:32:47 51°19.698 2°50.523 336 12.9 331 12.7
2012-04-11 07:32:51 51°19.711 2°50.513 335.8 12.9 332 12.8
2012-04-11 07:32:57 51°19.73 2°50.497 336.4 12.8 334 12.7
2012-04-11 07:33:02 51°19.746 2°50.484 338 12.9 333 12.9
2012-04-11 07:33:07 51°19.762 2°50.473 338.4 12.9 335 13
2012-04-11 07:33:12 51°19.778 2°50.46 338.7 12.9 335 13.5
2012-04-11 07:33:17 51°19.794 2°50.449 339.5 12.8 335 13.5
2012-04-11 07:33:22 51°19.81 2°50.437 339.5 12.8 335 13.9
2012-04-11 07:33:27 51°19.825 2°50.424 339.5 12.6 334 13.8
2012-04-11 07:33:31 51°19.839 2°50.415 339.2 12.8 336 14.2
2012-04-11 07:33:37 51°19.858 2°50.401 339.4 12.7 335 14
2012-04-11 07:33:42 51°19.874 2°50.389 339.9 12.7 336 14.2
2012-04-11 07:33:47 51°19.89 2°50.378 340.6 12.6 336 14.4
2012-04-11 07:33:52 51°19.907 2°50.367 340.8 12.8 337 14.7
2012-04-11 07:33:57 51°19.923 2°50.355 341.3 12.8 337 14.8
2012-04-11 07:34:02 51°19.939 2°50.345 342.1 12.8 338 15
2012-04-11 07:34:07 51°19.956 2°50.334 341.9 12.8 336 15
2012-04-11 07:34:12 51°19.972 2°50.323 341.7 12.8 338 14.9
2012-04-11 07:34:17 51°19.988 2°50.311 341.3 12.8 336 14.9
2012-04-11 07:34:22 51°20.004 2°50.3 341 12.8 336 15.2
2012-04-11 07:34:27 51°20.02 2°50.288 340.7 12.8 336 15
2012-04-11 07:34:32 51°20.037 2°50.277 340.6 12.9 336 15.2
2012-04-11 07:34:37 51°20.053 2°50.265 340.6 12.8 336 15.2
2012-04-11 07:34:42 51°20.069 2°50.254 340.9 12.6 336 15.4
2012-04-11 07:34:47 51°20.085 2°50.242 341.2 12.7 336 15.8
2012-04-11 07:34:51 51°20.098 2°50.233 340.5 12.8 335 15.7
2012-04-11 07:34:57 51°20.117 2°50.219 340 12.6 336 16.3
2012-04-11 07:35:02 51°20.134 2°50.207 339.8 12.8 335 16.5
2012-04-11 07:35:07 51°20.149 2°50.196 339.8 12.6 336 16.4
2012-04-11 07:35:11 51°20.161 2°50.185 340 12.5 334 17
2012-04-11 07:35:17 51°20.181 2°50.172 340.1 12.6 335 17.1
2012-04-11 07:35:22 51°20.198 2°50.159 339.7 12.8 334 17.2
2012-04-11 07:35:27 51°20.213 2°50.146 339 12.8 333 17.5
2012-04-11 07:35:32 51°20.229 2°50.133 337.9 12.7 332 18.1
2012-04-11 07:35:37 51°20.244 2°50.119 336.8 12.7 332 18.1
2012-04-11 07:35:42 51°20.26 2°50.106 336.9 12.7 329 18.2
2012-04-11 07:35:47 51°20.274 2°50.09 334.3 12.6 325 18.6
2012-04-11 07:35:51 51°20.286 2°50.078 331.4 12.8 327 18.9
2012-04-11 07:35:57 51°20.303 2°50.058 330.1 12.8 324 19.1
2012-04-11 07:36:02 51°20.317 2°50.041 328.6 12.7 323 19.3
2012-04-11 07:36:07 51°20.331 2°50.024 327.3 12.7 322 19.5
2012-04-11 07:36:12 51°20.345 2°50.006 326.1 12.8 321 19.7
2012-04-11 07:36:17 51°20.358 2°49.988 325 12.8 320 20.2
2012-04-11 07:36:22 51°20.371 2°49.968 323.6 12.7 318 20.2
2012-04-11 07:36:27 51°20.384 2°49.949 322.3 12.8 318 20.5
2012-04-11 07:36:32 51°20.397 2°49.93 321.6 12.7 318 20.8
2012-04-11 07:36:37 51°20.411 2°49.911 320.9 12.8 317 21
2012-04-11 07:36:42 51°20.424 2°49.891 320.3 12.9 316 21.3
2012-04-11 07:36:47 51°20.436 2°49.872 319.7 12.9 317 21.4
2012-04-11 07:36:52 51°20.449 2°49.851 320.1 12.9 315 21.7
2012-04-11 07:36:57 51°20.463 2°49.832 319.6 13 318 22
2012-04-11 07:37:02 51°20.475 2°49.812 320 12.9 315 22.2
2012-04-11 07:37:07 51°20.489 2°49.792 320.2 13.1 317 22.2
2012-04-11 07:37:12 51°20.502 2°49.772 320.2 13.1 316 22.4
2012-04-11 07:37:17 51°20.515 2°49.753 320.2 13 317 22.7
2012-04-11 07:37:22 51°20.528 2°49.733 320.5 13.1 317 22.7
2012-04-11 07:37:27 51°20.541 2°49.714 320.7 13 318 22.8
2012-04-11 07:37:31 51°20.552 2°49.698 320.8 13.1 317 23.1
2012-04-11 07:37:37 51°20.568 2°49.675 321 13.1 318 23.1
2012-04-11 07:37:42 51°20.582 2°49.655 321.3 13.1 317 22.9
2012-04-11 07:37:47 51°20.595 2°49.635 320.4 13.1 317 23.3
2012-04-11 07:37:52 51°20.608 2°49.615 320.3 13.2 317 23.5
2012-04-11 07:37:57 51°20.621 2°49.595 320.3 13.1 317 23.1
2012-04-11 07:38:02 51°20.635 2°49.576 320.5 13.2 317 23.3
2012-04-11 07:38:07 51°20.648 2°49.556 320.5 13.2 317 23.1
2012-04-11 07:38:11 51°20.659 2°49.541 320.9 13.1 319 23.4
2012-04-11 07:38:17 51°20.675 2°49.518 322.3 13.1 320 23.1
2012-04-11 07:38:22 51°20.69 2°49.5 323.6 13.1 321 23.3
2012-04-11 07:38:27 51°20.704 2°49.482 325 13.1 323 23.4
2012-04-11 07:38:32 51°20.718 2°49.464 325.7 13.2 321 23.4
2012-04-11 07:38:37 51°20.733 2°49.447 325.2 13.2 322 23.5
2012-04-11 07:38:42 51°20.747 2°49.429 325.5 13.1 322 23.4
2012-04-11 07:38:47 51°20.761 2°49.412 326 13 323 23.3
2012-04-11 07:38:52 51°20.776 2°49.394 326.9 13.1 323 23.4
2012-04-11 07:38:57 51°20.791 2°49.377 327.4 13.1 325 23.5
2012-04-11 07:39:02 51°20.806 2°49.36 327.7 13.2 324 23.4
2012-04-11 07:39:07 51°20.821 2°49.343 327.8 13.2 325 23.3
2012-04-11 07:39:12 51°20.835 2°49.326 328 13.1 325 23.2
2012-04-11 07:39:17 51°20.851 2°49.31 328.2 13.2 325 23.4
2012-04-11 07:39:22 51°20.865 2°49.293 327.6 13 324 23
2012-04-11 07:39:27 51°20.88 2°49.276 327.1 13 324 23.3
2012-04-11 07:39:31 51°20.892 2°49.262 327.1 13.1 324 23.3
2012-04-11 07:39:37 51°20.91 2°49.242 326.9 13.2 324 23
2012-04-11 07:39:42 51°20.924 2°49.224 326.7 13.2 324 23.1
2012-04-11 07:39:47 51°20.939 2°49.207 326 13.2 324 22.8
2012-04-11 07:39:52 51°20.953 2°49.19 326.2 13.1 324 22.7
2012-04-11 07:39:57 51°20.968 2°49.173 326.6 13.1 324 22.6
2012-04-11 07:40:02 51°20.983 2°49.157 326.9 13.1 325 22.5
2012-04-11 07:40:07 51°20.998 2°49.14 327.4 13.1 325 22.9
2012-04-11 07:40:11 51°21.01 2°49.127 327.4 13 323 22.6
2012-04-11 07:40:17 51°21.027 2°49.105 326.3 12.9 322 22.5
2012-04-11 07:40:22 51°21.041 2°49.088 325.7 12.7 322 22.5
2012-04-11 07:40:27 51°21.054 2°49.071 325 12.5 321 22.3
2012-04-11 07:40:32 51°21.067 2°49.053 324.5 12.4 320 22.3
2012-04-11 07:40:37 51°21.081 2°49.036 324 12.4 320 21.9
2012-04-11 07:40:42 51°21.094 2°49.018 323.3 12.3 320 20.8
2012-04-11 07:40:47 51°21.107 2°49.001 323.1 12.2 319 20.4
2012-04-11 07:40:52 51°21.119 2°48.982 322.8 12.3 318 20.4
2012-04-11 07:40:57 51°21.132 2°48.964 321.7 12.3 319 20.8
2012-04-11 07:41:02 51°21.145 2°48.947 322 12.3 319 20.7
2012-04-11 07:41:07 51°21.158 2°48.929 321.9 12.3 319 21
2012-04-11 07:41:12 51°21.17 2°48.911 321.9 12.3 319 20.9
2012-04-11 07:41:17 51°21.183 2°48.893 322.3 12.1 319 21
2012-04-11 07:41:22 51°21.196 2°48.875 322.5 12.2 318 20.9
2012-04-11 07:41:27 51°21.209 2°48.858 322.1 12.3 320 21.2
2012-04-11 07:41:32 51°21.222 2°48.839 322.1 12.3 318 21.3
2012-04-11 07:41:37 51°21.234 2°48.822 321.7 12.2 320 21.1
2012-04-11 07:41:42 51°21.247 2°48.804 322.9 12.2 320 21.3
2012-04-11 07:41:47 51°21.261 2°48.788 323.8 12.3 322 21.5
2012-04-11 07:41:51 51°21.272 2°48.774 324.8 12.4 322 21.6
2012-04-11 07:41:57 51°21.288 2°48.754 325.9 12.2 324 21.5
2012-04-11 07:42:02 51°21.302 2°48.739 326.9 12.2 324 21.5
2012-04-11 07:42:07 51°21.316 2°48.723 327.4 12.3 325 21.7
2012-04-11 07:42:12 51°21.33 2°48.708 329.3 12.2 327 21.8
2012-04-11 07:42:17 51°21.344 2°48.694 330.4 12.2 328 21.8
2012-04-11 07:42:22 51°21.359 2°48.68 331.1 12.2 328 22
2012-04-11 07:42:27 51°21.373 2°48.666 331.9 12.2 328 22.1
2012-04-11 07:42:31 51°21.385 2°48.655 332.1 12.2 331 22.1
2012-04-11 07:42:37 51°21.403 2°48.638 333.2 12.3 329 21.9
2012-04-11 07:42:42 51°21.418 2°48.626 334.7 12.2 333 22
2012-04-11 07:42:47 51°21.433 2°48.614 336.4 12.2 333 22.3
2012-04-11 07:42:52 51°21.448 2°48.602 337.7 12.2 335 22.5
2012-04-11 07:42:57 51°21.463 2°48.591 339 12.2 335 22.6
2012-04-11 07:43:02 51°21.478 2°48.579 339.6 12.2 336 22.6
2012-04-11 07:43:07 51°21.494 2°48.568 340.3 12.2 335 22.9
2012-04-11 07:43:12 51°21.51 2°48.558 341.2 12.2 338 22.9
2012-04-11 07:43:17 51°21.525 2°48.548 341.9 12.1 338 22.9
2012-04-11 07:43:22 51°21.542 2°48.539 342.8 12.3 339 23.3
2012-04-11 07:43:27 51°21.558 2°48.529 343.4 12.5 340 23.3
2012-04-11 07:43:32 51°21.575 2°48.521 345.3 12.6 343 23.4
2012-04-11 07:43:37 51°21.591 2°48.512 346 12.5 340 23.3
2012-04-11 07:43:42 51°21.608 2°48.503 346 12.6 343 23.7
2012-04-11 07:43:47 51°21.624 2°48.494 346.1 12.7 342 23.7
2012-04-11 07:43:52 51°21.642 2°48.487 347.3 12.9 344 23.7
2012-04-11 07:43:57 51°21.658 2°48.478 347.6 12.8 343 23.5
2012-04-11 07:44:02 51°21.675 2°48.471 347.8 12.7 345 23.5
2012-04-11 07:44:07 51°21.691 2°48.462 348.5 12.6 341 23.4
2012-04-11 07:44:12 51°21.708 2°48.454 347.1 12.6 343 23.3
2012-04-11 07:44:17 51°21.725 2°48.445 347.7 12.6 342 23.6
2012-04-11 07:44:22 51°21.742 2°48.437 348.1 12.7 344 23.9
2012-04-11 07:44:27 51°21.759 2°48.429 348.5 12.8 342 23.9
2012-04-11 07:44:31 51°21.773 2°48.422 347.8 12.9 344 23.3
2012-04-11 07:44:37 51°21.794 2°48.412 348 13 344 23.4
2012-04-11 07:44:42 51°21.81 2°48.404 348.5 12.8 343 23.9
2012-04-11 07:44:47 51°21.827 2°48.395 347.7 12.8 342 23.7
2012-04-11 07:44:52 51°21.844 2°48.387 347.3 12.7 343 23.8
2012-04-11 07:44:57 51°21.861 2°48.378 347.6 12.8 342 23.9
2012-04-11 07:45:02 51°21.879 2°48.37 347.3 12.9 343 23.8
2012-04-11 07:45:07 51°21.895 2°48.361 347 12.8 341 23.9
2012-04-11 07:45:11 51°21.908 2°48.354 346.8 12.7 342 23.8
2012-04-11 07:45:17 51°21.928 2°48.343 346.7 12.7 341 24
2012-04-11 07:45:22 51°21.945 2°48.334 346.3 12.7 342 24.3
2012-04-11 07:45:27 51°21.962 2°48.326 346.9 12.7 342 23.7
2012-04-11 07:45:32 51°21.979 2°48.318 347.7 12.8 343 24.3
2012-04-11 07:45:37 51°21.995 2°48.307 346.7 12.7 339 24.1
2012-04-11 07:45:42 51°22.013 2°48.298 345.3 12.8 341 24.4
2012-04-11 07:45:47 51°22.029 2°48.287 344.9 12.8 339 24.3
2012-04-11 07:45:52 51°22.046 2°48.278 344 12.8 340 24.4
2012-04-11 07:45:57 51°22.063 2°48.266 343.9 12.8 337 23.8
2012-04-11 07:46:02 51°22.079 2°48.256 342.9 12.8 339 24
2012-04-11 07:46:07 51°22.096 2°48.245 342.6 12.9 337 23.9
2012-04-11 07:46:11 51°22.109 2°48.236 341.8 12.9 337 24.2
2012-04-11 07:46:17 51°22.128 2°48.222 341.5 12.9 336 24.1
2012-04-11 07:46:22 51°22.145 2°48.211 340.9 12.9 338 23.8
2012-04-11 07:46:27 51°22.162 2°48.199 341.3 13.2 336 24.2
2012-04-11 07:46:31 51°22.175 2°48.189 340.9 13.1 337 23.8
2012-04-11 07:46:37 51°22.194 2°48.177 341.6 12.9 337 24
2012-04-11 07:46:42 51°22.21 2°48.166 342.4 12.8 338 23.6
2012-04-11 07:46:47 51°22.227 2°48.156 342.7 12.9 338 23.8
2012-04-11 07:46:51 51°22.24 2°48.147 342.8 12.9 337 23.1
2012-04-11 07:46:57 51°22.26 2°48.133 341.5 13 337 21.9
2012-04-11 07:47:02 51°22.277 2°48.122 341.7 12.9 338 21.2
2012-04-11 07:47:07 51°22.293 2°48.111 341.2 12.8 337 20.8
2012-04-11 07:47:12 51°22.309 2°48.1 341.5 12.9 338 21.3
2012-04-11 07:47:17 51°22.326 2°48.09 342.8 12.9 340 20.6
2012-04-11 07:47:22 51°22.343 2°48.081 344 12.9 340 20
2012-04-11 07:47:27 51°22.36 2°48.072 344.8 13 342 19.3
2012-04-11 07:47:32 51°22.377 2°48.063 346.3 12.9 342 19
2012-04-11 07:47:37 51°22.394 2°48.055 346.7 12.8 343 18.4
2012-04-11 07:47:42 51°22.41 2°48.047 347.7 12.9 343 16.2
2012-04-11 07:47:47 51°22.427 2°48.038 347.4 12.9 342 12.7
2012-04-11 07:47:52 51°22.444 2°48.03 347.9 12.7 344 14.6
2012-04-11 07:47:57 51°22.461 2°48.022 347.8 12.7 343 17.2
2012-04-11 07:48:02 51°22.478 2°48.014 348.4 12.8 345 18.2
2012-04-11 07:48:07 51°22.495 2°48.006 349.2 13 344 18.5
2012-04-11 07:48:12 51°22.512 2°47.998 348.4 12.8 343 18.7
2012-04-11 07:48:17 51°22.529 2°47.989 347 12.7 343 18.6
2012-04-11 07:48:22 51°22.546 2°47.979 346.3 12.9 341 18.2
2012-04-11 07:48:27 51°22.563 2°47.97 345.4 13 341 18.3
2012-04-11 07:48:31 51°22.576 2°47.963 344.9 12.9 341 18.2
2012-04-11 07:48:37 51°22.596 2°47.952 345.5 12.9 340 17.8
2012-04-11 07:48:42 51°22.612 2°47.942 344.9 12.8 339 16.8
2012-04-11 07:48:47 51°22.629 2°47.932 343.4 12.8 340 17.7
2012-04-11 07:48:52 51°22.646 2°47.922 343.2 12.9 339 18.4
2012-04-11 07:48:57 51°22.662 2°47.911 343.5 12.8 339 17.8
2012-04-11 07:49:02 51°22.679 2°47.9 343.1 12.9 338 16.7
2012-04-11 07:49:07 51°22.696 2°47.89 342.8 12.9 340 16
2012-04-11 07:49:11 51°22.709 2°47.881 343.1 13 338 17.8
2012-04-11 07:49:17 51°22.729 2°47.87 343.4 12.9 340 19.1
2012-04-11 07:49:22 51°22.746 2°47.86 343.5 13 340 19.9
2012-04-11 07:49:27 51°22.763 2°47.85 344.3 12.9 340 19.9
2012-04-11 07:49:32 51°22.78 2°47.84 343.9 13 339 19.4
2012-04-11 07:49:37 51°22.797 2°47.829 343.4 13 339 19.6
2012-04-11 07:49:42 51°22.813 2°47.818 342.7 12.9 338 18.5
2012-04-11 07:49:47 51°22.83 2°47.808 342.5 13 339 17.9
2012-04-11 07:49:51 51°22.843 2°47.799 342.5 13 337 16.8
2012-04-11 07:49:57 51°22.863 2°47.786 341.3 12.9 338 17.8
2012-04-11 07:50:02 51°22.879 2°47.775 341.9 12.8 337 19.1
2012-04-11 07:50:07 51°22.897 2°47.764 341.7 13.1 339 19.3
2012-04-11 07:50:12 51°22.915 2°47.754 342.7 13.2 340 19.4
2012-04-11 07:50:17 51°22.93 2°47.744 343.8 13 339 19.3
2012-04-11 07:50:22 51°22.948 2°47.735 344.1 13.1 341 18.7
2012-04-11 07:50:27 51°22.965 2°47.725 345.3 13 341 18.7
2012-04-11 07:50:32 51°22.981 2°47.715 344.4 12.8 340 18.7
2012-04-11 07:50:37 51°22.998 2°47.706 344.7 13 341 19.4
2012-04-11 07:50:42 51°23.016 2°47.697 345.1 13 342 19.3
2012-04-11 07:50:47 51°23.033 2°47.688 345.7 13.2 340 19.2
2012-04-11 07:50:51 51°23.047 2°47.68 345.3 13.1 341 18.7
2012-04-11 07:50:57 51°23.067 2°47.669 344.5 12.8 341 17.6
2012-04-11 07:51:02 51°23.084 2°47.66 345 12.8 342 19.7
2012-04-11 07:51:07 51°23.101 2°47.651 346.3 12.9 342 20.8
2012-04-11 07:51:12 51°23.118 2°47.643 346.3 13 343 21.3
2012-04-11 07:51:17 51°23.136 2°47.634 347.4 13 344 21.3
2012-04-11 07:51:22 51°23.153 2°47.625 347 13 343 21.3
2012-04-11 07:51:27 51°23.17 2°47.617 346.9 12.9 343 21.3
2012-04-11 07:51:31 51°23.184 2°47.61 347 12.8 343 21.4
2012-04-11 07:51:37 51°23.204 2°47.6 346.3 12.9 341 21.8
2012-04-11 07:51:42 51°23.221 2°47.591 345.3 12.9 342 21.4
2012-04-11 07:51:47 51°23.238 2°47.581 344.3 12.8 340 21.2
2012-04-11 07:51:52 51°23.254 2°47.572 344.2 12.8 341 21.9
2012-04-11 07:51:57 51°23.271 2°47.561 343.4 12.8 338 22.3
2012-04-11 07:52:02 51°23.288 2°47.551 343 12.9 340 22.4
2012-04-11 07:52:07 51°23.305 2°47.54 342.4 13.1 337 22.2
2012-04-11 07:52:12 51°23.322 2°47.53 341.9 13 340 22.1
2012-04-11 07:52:17 51°23.338 2°47.519 341.8 12.9 337 22.3
2012-04-11 07:52:22 51°23.355 2°47.508 341.8 13 338 21.9
2012-04-11 07:52:27 51°23.371 2°47.497 341.2 13 338 21.9
2012-04-11 07:52:32 51°23.388 2°47.487 342 13 339 22
2012-04-11 07:52:37 51°23.405 2°47.477 342.4 13 338 21.4
2012-04-11 07:52:42 51°23.421 2°47.466 341.6 13 340 21.5
2012-04-11 07:52:47 51°23.438 2°47.456 343.2 12.9 338 22
2012-04-11 07:52:52 51°23.455 2°47.446 342.7 12.9 340 22.2
2012-04-11 07:52:57 51°23.471 2°47.436 343.2 13 338 22.1
2012-04-11 07:53:02 51°23.488 2°47.426 342.4 12.7 341 22.1
2012-04-11 07:53:07 51°23.504 2°47.417 343.9 12.7 340 22.4